Time;durP1;ratioP1;P1;durP2;ratioP2;P2;SDS_P1;SDS_P2;PMS_P1;PMS_P2;Temp;Humidity;BMP_temperature;BMP_pressure;BME280_temperature;BME280_humidity;BME280_pressure;Samples;Min_cycle;Max_cycle;Signal;HPM_P1;HPM_P2
2023/03/04 00:01:51;;;;;;;;;;;;;;;;;;;;;
2023/03/04 00:20:40;;;;;;;19.60;2.90;;;6.00;99.90;;;;;;4825141;29;20685;-81
2023/03/04 00:31:19;;;;;;;17.02;2.03;;;5.90;99.90;;;;;;4787288;29;20120;-81
2023/03/04 00:42:30;;;;;;;17.73;2.17;;;5.90;99.90;;;;;;4830940;29;20130;-82
2023/03/04 00:45:59;;;;;;;15.13;2.15;;;5.90;99.90;;;;;;4830168;29;20088;-81
2023/03/04 00:58:05;;;;;;;21.40;2.50;;;6.30;99.90;;;;;;4748268;30;20059;-81
2023/03/04 01:05:18;;;;;;;14.00;2.45;;;5.90;99.90;;;;;;4735736;30;20054;-81
2023/03/04 01:09:21;;;;;;;14.07;1.60;;;5.90;99.90;;;;;;4756304;30;20114;-81
2023/03/04 01:12:43;;;;;;;10.48;1.98;;;6.10;99.90;;;;;;4750377;30;20106;-81
2023/03/04 01:16:59;;;;;;;11.82;2.35;;;6.20;99.90;;;;;;4759729;29;20187;-82
2023/03/04 01:32:30;;;;;;;17.08;3.60;;;6.10;99.90;;;;;;4931561;29;20407;-81
2023/03/04 01:40:07;;;;;;;11.75;1.77;;;5.90;99.90;;;;;;4919851;29;20708;-81
2023/03/04 01:47:47;;;;;;;11.95;1.88;;;5.90;99.90;;;;;;4960676;28;20117;-81
2023/03/04 01:55:33;;;;;;;11.50;1.92;;;5.90;99.90;;;;;;4886587;29;20042;-82
2023/03/04 01:59:00;;;;;;;15.93;2.42;;;6.20;99.90;;;;;;4856920;29;20070;-81
2023/03/04 02:06:48;;;;;;;16.30;2.20;;;5.90;99.90;;;;;;4819104;29;20088;-81
2023/03/04 02:14:56;;;;;;;9.20;1.33;;;6.30;99.90;;;;;;5048933;28;20111;-81
2023/03/04 02:22:39;;;;;;;13.10;1.98;;;6.00;99.90;;;;;;5015108;28;20045;-81
2023/03/04 02:26:30;;;;;;;11.40;1.33;;;6.10;99.90;;;;;;4948019;29;20079;-81
2023/03/04 02:30:37;;;;;;;;;;;;;;;;;;;;;
2023/03/04 02:38:06;;;;;;;18.38;2.45;;;5.90;99.90;;;;;;4984676;28;20076;-81
2023/03/04 02:41:57;;;;;;;12.18;1.63;;;5.40;99.90;;;;;;4903861;29;20089;-81
2023/03/04 02:53:15;;;;;;;14.55;1.73;;;5.80;99.90;;;;;;4897935;29;20055;-81
2023/03/04 02:57:07;;;;;;;12.15;2.30;;;5.80;99.90;;;;;;4928403;29;20078;-81
2023/03/04 03:04:51;;;;;;;14.23;2.03;;;5.70;99.90;;;;;;4890129;29;20040;-81
2023/03/04 03:27:21;;;;;;;17.38;2.08;;;5.70;99.90;;;;;;5012033;28;20045;-81
2023/03/04 03:53:29;;;;;;;13.88;1.60;;;5.60;99.90;;;;;;4872019;29;20437;-82
2023/03/04 04:11:40;;;;;;;13.63;1.92;;;5.80;99.90;;;;;;4908034;28;20055;-81
2023/03/04 04:23:21;;;;;;;21.02;1.85;;;5.30;99.90;;;;;;5002590;28;20132;-81
2023/03/04 04:38:53;;;;;;;;;;;;;;;;;;;;;
2023/03/04 04:42:30;;;;;;;13.52;2.40;;;5.60;99.90;;;;;;4900096;29;20047;-81
2023/03/04 04:49:52;;;;;;;10.13;1.40;;;5.80;99.90;;;;;;4942015;29;20133;-81
2023/03/04 04:53:29;;;;;;;;;;;;;;;;;;;;;
2023/03/04 04:57:05;;;;;;;11.40;2.03;;;5.60;99.90;;;;;;4894652;29;20052;-81
2023/03/04 05:04:10;;;;;;;15.32;1.60;;;5.90;99.90;;;;;;4913012;29;20302;-81
2023/03/04 05:07:14;;;;;;;12.68;1.35;;;5.40;99.90;;;;;;4879295;28;20130;-81
2023/03/04 05:10:35;;;;;;;16.70;2.03;;;6.40;99.90;;;;;;4899860;28;20061;-81
2023/03/04 05:17:56;;;;;;;9.63;1.23;;;5.60;99.90;;;;;;4970608;28;20054;-81
2023/03/04 05:21:59;;;;;;;12.48;2.58;;;5.30;99.90;;;;;;4911024;29;20051;-82
2023/03/04 06:03:51;;;;;;;8.25;1.13;;;5.40;99.90;;;;;;4874814;29;20090;-81
2023/03/04 06:07:41;;;;;;;13.93;1.95;;;5.60;99.90;;;;;;4819908;29;20106;-81
2023/03/04 06:50:41;;;;;;;7.10;0.70;;;6.40;99.90;;;;;;4863748;29;20041;-81
2023/03/04 06:54:25;;;;;;;;;;;;;;;;;;;;;
2023/03/04 07:13:24;;;;;;;2.75;0.60;;;5.50;99.90;;;;;;4831362;29;20054;-82
2023/03/04 07:24:56;;;;;;;9.30;1.15;;;6.40;99.90;;;;;;4729263;30;20612;-82
2023/03/04 07:40:19;;;;;;;6.05;0.60;;;6.80;99.90;;;;;;5169149;27;20338;-82
2023/03/04 08:49:46;;;;;;;12.02;1.80;;;7.20;99.90;;;;;;5016037;28;20049;-82
2023/03/04 09:23:40;;;;;;;14.52;2.97;;;7.10;99.90;;;;;;4877491;29;20523;-82
2023/03/04 09:34:48;;;;;;;14.73;2.50;;;7.40;99.90;;;;;;4915111;29;20119;-82
2023/03/04 10:04:48;;;;;;;12.98;2.22;;;7.30;99.90;;;;;;4944906;29;20150;-82
2023/03/04 10:12:23;;;;;;;15.93;2.80;;;7.20;99.90;;;;;;4889429;29;20134;-82
2023/03/04 10:38:59;;;;;;;18.63;2.95;;;7.10;99.90;;;;;;4770060;29;20415;-81
2023/03/04 10:49:59;;;;;;;7.05;1.40;;;7.40;99.90;;;;;;4897105;29;20099;-82
2023/03/04 11:23:07;;;;;;;11.93;1.88;;;7.80;99.90;;;;;;5049925;28;20627;-82
2023/03/04 11:49:34;;;;;;;;;;;;;;;;;;;;;
2023/03/04 12:04:23;;;;;;;15.10;2.40;;;7.80;99.90;;;;;;5042345;28;20780;-82
2023/03/04 12:19:10;;;;;;;14.13;2.40;;;7.70;99.90;;;;;;5047917;28;20063;-81
2023/03/04 12:26:49;;;;;;;14.73;2.28;;;8.20;99.90;;;;;;5065303;28;20434;-82
2023/03/04 12:41:42;;;;;;;13.95;2.30;;;7.80;99.90;;;;;;5024732;28;20056;-81
2023/03/04 12:45:06;;;;;;;10.52;1.73;;;7.90;99.90;;;;;;5020756;28;20092;-82
2023/03/04 13:11:07;;;;;;;;;;;;;;;;;;;;;
2023/03/04 13:29:45;;;;;;;9.52;1.38;;;8.20;99.90;;;;;;5119704;27;20126;-81
2023/03/04 13:33:29;;;;;;;11.57;2.42;;;8.10;99.90;;;;;;5018890;28;20049;-81
2023/03/04 13:44:49;;;;;;;12.90;2.20;;;8.20;99.90;;;;;;4934096;29;20046;-81
2023/03/04 13:53:15;;;;;;;15.85;2.42;;;8.50;99.90;;;;;;4933033;29;20062;-81
2023/03/04 13:56:51;;;;;;;7.78;1.05;;;8.30;99.90;;;;;;4964875;28;20547;-81
2023/03/04 14:00:19;;;;;;;7.03;1.98;;;8.30;99.90;;;;;;5008343;28;20495;-81
2023/03/04 14:04:02;;;;;;;12.48;2.33;;;8.50;99.90;;;;;;5016717;28;20083;-81
2023/03/04 14:07:32;;;;;;;13.73;1.67;;;8.60;99.90;;;;;;5050386;28;20241;-81
2023/03/04 14:11:01;;;;;;;9.85;1.45;;;8.50;99.90;;;;;;4964837;28;20561;-81
2023/03/04 14:18:30;;;;;;;11.73;1.80;;;8.00;99.90;;;;;;4985196;28;20562;-81
2023/03/04 14:29:32;;;;;;;7.00;1.27;;;7.80;99.90;;;;;;5124853;27;20047;-81
2023/03/04 14:33:10;;;;;;;9.90;1.85;;;7.90;99.90;;;;;;5068891;28;20054;-81
2023/03/04 14:37:03;;;;;;;7.30;1.20;;;7.80;99.90;;;;;;4904435;28;20848;-81
2023/03/04 14:40:50;;;;;;;8.43;2.47;;;7.70;99.90;;;;;;4899894;29;20140;-81
2023/03/04 14:52:08;;;;;;;9.98;1.48;;;7.70;99.90;;;;;;4998399;28;20048;-80
2023/03/04 14:56:08;;;;;;;8.05;1.80;;;7.80;99.90;;;;;;4944324;28;20046;-81
2023/03/04 15:10:55;;;;;;;7.95;1.15;;;7.20;99.90;;;;;;4881066;29;20182;-81
2023/03/04 15:18:20;;;;;;;12.55;1.92;;;7.20;99.90;;;;;;4891934;29;20059;-81
2023/03/04 15:21:54;;;;;;;8.40;1.30;;;7.40;99.90;;;;;;4922692;28;20049;-81
2023/03/04 15:25:37;;;;;;;;;;;;;;;;;;;;;
2023/03/04 15:33:47;;;;;;;12.80;1.73;;;6.40;99.90;;;;;;4841359;29;20052;-81
2023/03/04 15:41:37;;;;;;;9.77;1.60;;;7.10;99.90;;;;;;4826454;29;20106;-81
2023/03/04 15:45:40;;;;;;;9.07;1.38;;;7.10;99.90;;;;;;4857509;29;20092;-81
2023/03/04 15:49:42;;;;;;;18.67;2.40;;;6.80;99.90;;;;;;4808826;29;20413;-81
2023/03/04 15:53:20;;;;;;;14.95;2.25;;;6.90;99.90;;;;;;4773387;30;20094;-81
2023/03/04 15:57:02;;;;;;;9.15;1.92;;;6.80;99.90;;;;;;4732732;30;20094;-81
2023/03/04 16:01:29;;;;;;;14.75;2.97;;;6.80;99.90;;;;;;4759885;30;20081;-81
2023/03/04 16:05:20;;;;;;;11.40;2.35;;;6.80;99.90;;;;;;4739852;30;20055;-81
2023/03/04 16:09:17;;;;;;;14.48;2.15;;;6.90;99.90;;;;;;4738371;30;20058;-81
2023/03/04 16:16:42;;;;;;;10.85;2.08;;;7.30;99.90;;;;;;4799545;29;20240;-81
2023/03/04 16:19:34;;;;;;;16.17;1.80;;;6.60;99.90;;;;;;4779091;29;20058;-81
2023/03/04 16:22:17;;;;;;;12.95;3.03;;;6.00;99.90;;;;;;4809356;29;20097;-81
2023/03/04 16:25:03;;;;;;;11.63;2.40;;;6.30;99.90;;;;;;4875084;29;20084;-81
2023/03/04 16:28:31;;;;;;;14.77;2.17;;;6.90;99.90;;;;;;4945790;29;20062;-81
2023/03/04 16:31:44;;;;;;;18.15;4.28;;;6.40;99.90;;;;;;5015166;28;20074;-81
2023/03/04 16:34:40;;;;;;;12.93;1.80;;;6.30;99.90;;;;;;5021633;28;20041;-81
2023/03/04 16:37:40;;;;;;;;;;;;;;;;;;;;;
2023/03/04 16:40:24;;;;;;;15.68;2.00;;;6.60;99.90;;;;;;5034684;28;20072;-81
2023/03/04 16:42:54;;;;;;;13.70;2.13;;;6.10;99.90;;;;;;5027237;28;20208;-81
2023/03/04 16:45:31;;;;;;;14.80;1.88;;;5.90;99.90;;;;;;5035049;28;20075;-81
2023/03/04 16:48:01;;;;;;;17.98;1.77;;;5.80;99.90;;;;;;5023748;28;20127;-81
2023/03/04 16:50:40;;;;;;;9.88;2.05;;;5.30;99.90;;;;;;5009710;28;20103;-81
2023/03/04 16:53:37;;;;;;;9.50;1.33;;;5.90;99.90;;;;;;5031086;27;20564;-81
2023/03/04 16:56:15;;;;;;;11.55;1.95;;;6.20;99.90;;;;;;5086554;27;20066;-81
2023/03/04 16:59:18;;;;;;;11.60;1.52;;;5.90;99.90;;;;;;5095118;27;20058;-81
2023/03/04 17:02:01;;;;;;;10.63;2.22;;;6.30;99.90;;;;;;5093742;27;20050;-81
2023/03/04 17:05:03;;;;;;;;;;;;;;;;;;;;;
2023/03/04 17:07:34;;;;;;;12.07;1.70;;;5.80;99.90;;;;;;5109001;27;20059;-81
2023/03/04 17:10:27;;;;;;;;;;;;;;;;;;;;;
2023/03/04 17:13:02;;;;;;;5.05;0.88;;;5.70;99.90;;;;;;5108128;27;20075;-81
2023/03/04 17:15:41;;;;;;;8.63;1.05;;;5.70;99.90;;;;;;5094207;27;20035;-80
2023/03/04 17:18:27;;;;;;;7.22;1.10;;;5.70;99.90;;;;;;5087437;27;20475;-80
2023/03/04 17:21:18;;;;;;;9.43;1.48;;;5.50;99.90;;;;;;5093957;27;20035;-81
2023/03/04 17:24:10;;;;;;;6.53;1.52;;;5.30;99.90;;;;;;5094843;27;20077;-81
2023/03/04 17:26:54;;;;;;;7.47;1.48;;;5.60;99.90;;;;;;5107574;27;20036;-81
2023/03/04 17:29:39;;;;;;;8.15;1.67;;;5.10;99.90;;;;;;5104771;27;20103;-81
2023/03/04 17:32:24;;;;;;;6.00;1.40;;;5.80;99.90;;;;;;5091324;27;20520;-81
2023/03/04 17:35:19;;;;;;;;;;;;;;;;;;;;;
2023/03/04 17:41:23;;;;;;;8.93;1.58;;;5.20;99.90;;;;;;5110243;27;20050;-81
2023/03/04 17:43:58;;;;;;;9.10;2.47;;;5.20;99.90;;;;;;5095222;27;20035;-81
2023/03/04 17:46:37;;;;;;;8.75;1.20;;;5.70;99.90;;;;;;5086754;27;20048;-81
2023/03/04 17:49:21;;;;;;;;;;;;;;;;;;;;;
2023/03/04 17:51:57;;;;;;;8.98;1.52;;;4.80;99.90;;;;;;5109876;27;20111;-81
2023/03/04 17:54:42;;;;;;;10.43;1.52;;;5.10;99.90;;;;;;5094711;27;20136;-80
2023/03/04 17:57:18;;;;;;;;;;;5.30;99.90;;;;;;5080559;27;20070;-81
2023/03/04 18:00:09;;;;;;;8.35;1.35;;;5.10;99.90;;;;;;5091739;27;19988;-81
2023/03/04 18:02:57;;;;;;;;;;;;;;;;;;;;;
2023/03/04 18:05:33;;;;;;;9.95;1.08;;;5.10;99.90;;;;;;5106392;27;20043;-81
2023/03/04 18:08:11;;;;;;;7.45;1.13;;;5.60;99.90;;;;;;5077886;27;20047;-81
2023/03/04 18:11:06;;;;;;;10.48;1.40;;;5.60;99.90;;;;;;5095638;27;20063;-81
2023/03/04 18:14:04;;;;;;;;;;;;;;;;;;;;;
2023/03/04 18:16:53;;;;;;;11.90;1.63;;;5.00;99.90;;;;;;5107150;27;20107;-81
2023/03/04 18:19:32;;;;;;;10.05;1.48;;;5.10;99.90;;;;;;5075297;27;20051;-81
2023/03/04 18:22:21;;;;;;;9.25;1.52;;;4.70;99.90;;;;;;5090801;27;20521;-80
2023/03/04 18:25:28;;;;;;;7.53;1.50;;;5.20;99.90;;;;;;5088144;27;20050;-81
2023/03/04 18:28:03;;;;;;;11.90;1.83;;;5.10;99.90;;;;;;5112700;27;20043;-81
2023/03/04 18:30:47;;;;;;;11.25;1.90;;;5.00;99.90;;;;;;5090516;27;20040;-81
2023/03/04 18:33:45;;;;;;;8.32;1.20;;;4.50;99.90;;;;;;5110488;27;20668;-81
2023/03/04 18:36:19;;;;;;;6.43;1.20;;;5.00;99.90;;;;;;5099091;28;20039;-81
2023/03/04 18:39:09;;;;;;;14.82;2.00;;;5.00;99.90;;;;;;5093360;27;20051;-81
2023/03/04 18:41:56;;;;;;;14.43;1.95;;;5.00;99.90;;;;;;5095189;27;20496;-81
2023/03/04 18:44:42;;;;;;;16.08;1.58;;;5.00;99.90;;;;;;5092155;27;20074;-81
2023/03/04 18:47:26;;;;;;;10.75;2.45;;;5.30;99.90;;;;;;5092740;27;20058;-81
2023/03/04 18:50:33;;;;;;;16.00;2.40;;;4.90;99.90;;;;;;5095802;27;20039;-81
2023/03/04 18:53:08;;;;;;;11.32;2.58;;;4.90;99.90;;;;;;5095390;27;20484;-81
2023/03/04 18:56:06;;;;;;;12.07;2.47;;;5.20;99.90;;;;;;5087535;27;20095;-81
2023/03/04 18:58:45;;;;;;;7.93;1.38;;;4.80;99.90;;;;;;5077959;27;20047;-81
2023/03/04 19:04:22;;;;;;;13.90;1.85;;;4.90;99.90;;;;;;5105949;27;20370;-81
2023/03/04 19:07:00;;;;;;;8.48;1.98;;;5.40;99.90;;;;;;5090706;27;20047;-81
2023/03/04 19:10:09;;;;;;;14.20;2.50;;;5.10;99.90;;;;;;5106784;27;20047;-81
2023/03/04 19:13:00;;;;;;;7.28;1.33;;;5.00;99.90;;;;;;5092739;27;20529;-81
2023/03/04 19:15:54;;;;;;;15.67;3.27;;;4.90;99.90;;;;;;5090233;27;20043;-80
2023/03/04 19:19:03;;;;;;;7.88;1.63;;;4.90;99.90;;;;;;5091088;27;20043;-81
2023/03/04 19:21:47;;;;;;;13.53;2.23;;;4.80;99.90;;;;;;5091087;27;20051;-81
2023/03/04 19:24:51;;;;;;;12.65;2.72;;;5.00;99.90;;;;;;5106275;27;20277;-81
2023/03/04 19:27:59;;;;;;;;;;;;;;;;;;;;;
2023/03/04 19:31:17;;;;;;;12.93;2.22;;;4.90;99.90;;;;;;5102830;28;20048;-81
2023/03/04 19:34:12;;;;;;;16.42;2.35;;;4.50;99.90;;;;;;5087440;28;20040;-81
2023/03/04 19:37:15;;;;;;;10.90;1.77;;;4.80;99.90;;;;;;5111636;28;20194;-81
2023/03/04 19:40:09;;;;;;;;;;;;;;;;;;;;;
2023/03/04 19:43:26;;;;;;;;;;;;;;;;;;;;;
2023/03/04 19:46:46;;;;;;;;;;;;;;;;;;;;;
2023/03/04 19:49:44;;;;;;;9.07;1.42;;;4.90;99.90;;;;;;5101550;28;20050;-81
2023/03/04 19:52:20;;;;;;;8.35;0.98;;;4.30;99.90;;;;;;5099177;28;20097;-81
2023/03/04 19:55:09;;;;;;;10.60;1.73;;;4.60;99.90;;;;;;5104840;28;20035;-81
2023/03/04 19:58:07;;;;;;;;;;;;;;;;;;;;;
2023/03/04 20:00:59;;;;;;;7.43;1.05;;;4.40;99.90;;;;;;5104534;28;20062;-81
2023/03/04 20:04:22;;;;;;;8.45;1.30;;;4.50;99.90;;;;;;5113790;28;20040;-81
2023/03/04 20:07:05;;;;;;;7.95;1.35;;;4.40;99.90;;;;;;5075154;28;20595;-81
2023/03/04 20:10:28;;;;;;;;;;;;;;;;;;;;;
2023/03/04 20:16:47;;;;;;;;;;;;;;;;;;;;;
2023/03/04 20:20:09;;;;;;;9.25;1.48;;;4.10;99.90;;;;;;5122660;28;20076;-81
2023/03/04 20:23:31;;;;;;;;;;;;;;;;;;;;;
2023/03/04 20:29:25;;;;;;;14.75;2.15;;;4.50;99.90;;;;;;5111354;28;20059;-81
2023/03/04 20:32:25;;;;;;;11.15;1.92;;;4.30;99.90;;;;;;5089472;28;20509;-81
2023/03/04 20:35:43;;;;;;;13.85;1.80;;;4.00;99.90;;;;;;5105102;28;20042;-81
2023/03/04 20:42:02;;;;;;;7.35;1.23;;;4.30;99.90;;;;;;5073498;28;20063;-81
2023/03/04 20:45:14;;;;;;;8.80;1.88;;;4.30;99.90;;;;;;5102181;28;20047;-81
2023/03/04 20:48:27;;;;;;;13.27;1.83;;;4.40;99.90;;;;;;5087809;27;20044;-81
2023/03/04 20:51:08;;;;;;;5.63;1.17;;;4.40;99.90;;;;;;5079362;27;20134;-81
2023/03/04 20:54:25;;;;;;;7.93;1.20;;;4.40;99.90;;;;;;5089635;27;20066;-81
2023/03/04 21:05:17;;;;;;;9.85;1.55;;;4.30;99.90;;;;;;5128850;27;20051;-81
2023/03/04 21:08:15;;;;;;;9.13;1.20;;;4.60;99.90;;;;;;5095734;27;20085;-81
2023/03/04 21:10:55;;;;;;;9.90;1.85;;;4.20;99.90;;;;;;5098559;27;20045;-81
2023/03/04 21:17:11;;;;;;;8.05;1.27;;;4.30;99.90;;;;;;5111374;27;20054;-81
2023/03/04 21:20:34;;;;;;;5.63;1.45;;;4.30;99.90;;;;;;5092708;27;20078;-81
2023/03/04 21:24:08;;;;;;;;;;;;;;;;;;;;;
2023/03/04 21:27:15;;;;;;;6.15;0.80;;;4.00;99.90;;;;;;5112378;27;20035;-81
2023/03/04 21:30:20;;;;;;;10.50;1.50;;;4.00;99.90;;;;;;5097160;27;20049;-81
2023/03/04 21:33:02;;;;;;;7.00;0.82;;;4.30;99.90;;;;;;5107976;27;20050;-81
2023/03/04 21:35:40;;;;;;;8.57;1.88;;;4.00;99.90;;;;;;5096031;27;20054;-81
2023/03/04 21:38:08;;;;;;;7.38;1.48;;;2.90;99.90;;;;;;5090704;27;20051;-81
2023/03/04 21:40:51;;;;;;;6.70;1.20;;;4.70;99.90;;;;;;5116670;27;20035;-81
2023/03/04 21:43:43;;;;;;;7.43;1.10;;;3.90;99.90;;;;;;5074190;27;20039;-81
2023/03/04 21:46:22;;;;;;;7.28;1.08;;;3.70;99.90;;;;;;5092957;27;20176;-81
2023/03/04 21:49:31;;;;;;;6.63;1.02;;;3.80;99.90;;;;;;5109175;27;20051;-81
2023/03/04 21:52:16;;;;;;;6.82;1.10;;;3.70;99.90;;;;;;5080307;27;20039;-81
2023/03/04 21:55:14;;;;;;;6.28;0.90;;;3.70;99.90;;;;;;5093295;27;20088;-81
2023/03/04 21:57:58;;;;;;;3.20;0.80;;;4.00;99.90;;;;;;5081118;28;20097;-81
2023/03/04 22:00:29;;;;;;;5.03;1.15;;;3.70;99.90;;;;;;5092776;27;20127;-81
2023/03/04 22:03:09;;;;;;;6.22;1.15;;;3.70;99.90;;;;;;5106947;27;20039;-81
2023/03/04 22:05:58;;;;;;;;;;;;;;;;;;;;;
2023/03/04 22:08:35;;;;;;;6.05;1.20;;;3.70;99.90;;;;;;5104946;27;20516;-81
2023/03/04 22:11:16;;;;;;;7.40;1.30;;;3.80;99.90;;;;;;5089931;27;20043;-81
2023/03/04 22:14:01;;;;;;;7.78;1.38;;;3.70;99.90;;;;;;5109251;27;20039;-81
2023/03/04 22:16:34;;;;;;;6.57;1.00;;;3.80;99.90;;;;;;5086228;27;20044;-78
2023/03/04 22:19:00;;;;;;;7.30;0.80;;;3.90;99.90;;;;;;5075995;27;20035;-77
2023/03/04 22:21:26;;;;;;;9.93;1.40;;;3.90;99.90;;;;;;5078664;27;20484;-79
2023/03/04 22:23:52;;;;;;;7.65;1.20;;;4.10;99.90;;;;;;5083995;27;20153;-78
2023/03/04 22:34:01;;;;;;;5.88;0.90;;;4.00;99.90;;;;;;5063937;27;20066;-82
2023/03/04 22:36:38;;;;;;;7.40;1.33;;;3.80;99.90;;;;;;5037110;28;20056;-80
2023/03/04 22:39:37;;;;;;;6.90;1.05;;;3.40;99.90;;;;;;5084973;27;20058;-80
2023/03/04 22:42:10;;;;;;;8.10;1.08;;;3.90;99.90;;;;;;5110565;27;20062;-81
2023/03/04 22:45:06;;;;;;;11.77;2.00;;;3.80;99.90;;;;;;5097019;27;20062;-81
2023/03/04 22:47:35;;;;;;;5.28;1.23;;;3.90;99.90;;;;;;5071418;27;20047;-81
2023/03/04 22:50:11;;;;;;;8.95;1.88;;;3.90;99.90;;;;;;5068840;27;20143;-81
2023/03/04 22:52:59;;;;;;;8.45;1.27;;;3.80;99.90;;;;;;5093172;27;20134;-81
2023/03/04 22:56:03;;;;;;;8.40;1.23;;;3.80;99.90;;;;;;5075268;27;20043;-81
2023/03/04 22:58:39;;;;;;;8.40;1.67;;;4.10;99.90;;;;;;5107764;27;20063;-81
2023/03/04 23:01:32;;;;;;;4.30;1.00;;;4.40;99.90;;;;;;5095381;27;20084;-81
2023/03/04 23:04:03;;;;;;;9.90;1.67;;;3.70;99.90;;;;;;5087509;27;20055;-81
2023/03/04 23:06:43;;;;;;;5.53;1.27;;;4.40;99.90;;;;;;5090528;27;20515;-81
2023/03/04 23:09:27;;;;;;;11.57;2.17;;;4.00;99.90;;;;;;5074022;27;20054;-81
2023/03/04 23:12:18;;;;;;;7.45;1.50;;;3.70;99.90;;;;;;5093760;27;20089;-81
2023/03/04 23:15:47;;;;;;;;;;;;;;;;;;;;;
2023/03/04 23:18:17;;;;;;;8.88;1.15;;;4.10;99.90;;;;;;5022060;28;20190;-81
2023/03/04 23:20:51;;;;;;;5.60;0.90;;;3.90;99.90;;;;;;5086000;27;20035;-81
2023/03/04 23:23:23;;;;;;;;;;;3.50;99.90;;;;;;5083997;28;20084;-81
2023/03/04 23:29:43;;;;;;;6.63;1.33;;;4.20;99.90;;;;;;5035128;27;20036;-81
2023/03/04 23:32:18;;;;;;;8.38;0.90;;;3.20;99.90;;;;;;5105564;27;22072;-81
2023/03/04 23:35:04;;;;;;;8.02;1.85;;;3.90;99.90;;;;;;5067388;27;20039;-81
2023/03/04 23:37:34;;;;;;;9.00;1.38;;;3.90;99.90;;;;;;5058672;27;20046;-81
2023/03/04 23:40:19;;;;;;;10.48;1.38;;;3.90;99.90;;;;;;5094226;28;20050;-81
2023/03/04 23:43:40;;;;;;;;;;;;;;;;;;;;;
2023/03/04 23:46:16;;;;;;;9.20;1.92;;;3.90;99.90;;;;;;5079160;28;20224;-82
2023/03/04 23:49:07;;;;;;;6.90;1.17;;;3.80;99.90;;;;;;5074272;28;20102;-81
2023/03/04 23:51:36;;;;;;;4.28;1.08;;;3.90;99.90;;;;;;5086780;28;20042;-81
2023/03/04 23:54:18;;;;;;;11.13;1.67;;;4.10;99.90;;;;;;5080620;28;20409;-81
2023/03/04 23:56:54;;;;;;;6.05;0.80;;;3.90;99.90;;;;;;5061111;28;20042;-80
2023/03/04 23:59:30;;;;;;;10.88;1.95;;;3.90;99.90;;;;;;5095522;28;20134;-81
